Time;durP1;ratioP1;P1;durP2;ratioP2;P2;SDS_P1;SDS_P2;PMS_P1;PMS_P2;Temp;Humidity;BMP_temperature;BMP_pressure;BME280_temperature;BME280_humidity;BME280_pressure;Samples;Min_cycle;Max_cycle;Signal;HPM_P1;HPM_P2
2022/02/12 00:02:16;;;;;;;0.30;0.30;;;8.50;32.90;;;;;;6157524;23;20449;-72
2022/02/12 00:04:42;;;;;;;0.57;0.57;;;8.50;32.20;;;;;;6156363;23;20001;-72
2022/02/12 00:07:08;;;;;;;0.40;0.40;;;8.50;33.80;;;;;;6158017;23;20005;-73
2022/02/12 00:09:34;;;;;;;0.45;0.40;;;8.40;33.70;;;;;;6158228;23;20005;-82
2022/02/12 00:12:00;;;;;;;0.40;0.40;;;8.40;35.40;;;;;;6157278;23;20071;-81
2022/02/12 00:14:25;;;;;;;1.15;0.70;;;8.30;34.50;;;;;;6183997;23;20337;-81
2022/02/12 00:16:51;;;;;;;0.40;0.40;;;8.30;33.80;;;;;;6157701;23;20012;-82
2022/02/12 00:19:17;;;;;;;0.38;0.38;;;8.30;33.30;;;;;;6184463;23;19997;-81
2022/02/12 00:21:42;;;;;;;0.40;0.30;;;8.30;33.40;;;;;;6184245;23;20072;-80
2022/02/12 00:24:08;;;;;;;0.30;0.30;;;8.30;33.40;;;;;;6183763;23;20079;-81
2022/02/12 00:26:34;;;;;;;0.30;0.30;;;8.30;32.90;;;;;;6184245;23;20036;-82
2022/02/12 00:28:59;;;;;;;0.32;0.32;;;8.30;33.70;;;;;;6185510;23;20001;-81
2022/02/12 00:31:25;;;;;;;0.60;0.55;;;8.20;33.50;;;;;;6185749;23;20005;-82
2022/02/12 00:33:52;;;;;;;0.40;0.40;;;8.20;33.60;;;;;;6185808;23;20001;-81
2022/02/12 00:36:17;;;;;;;0.75;0.75;;;8.20;34.90;;;;;;6159309;23;20008;-82
2022/02/12 00:38:43;;;;;;;0.88;0.88;;;8.10;34.40;;;;;;6185417;23;20006;-82
2022/02/12 00:41:09;;;;;;;0.80;0.80;;;8.20;34.50;;;;;;6158071;23;20005;-81
2022/02/12 00:43:35;;;;;;;0.95;0.93;;;8.10;34.60;;;;;;6184061;23;20013;-72
2022/02/12 00:46:01;;;;;;;0.45;0.45;;;8.10;35.30;;;;;;6157550;23;20005;-73
2022/02/12 00:48:27;;;;;;;0.35;0.35;;;8.10;34.30;;;;;;6183655;23;20001;-73
2022/02/12 00:50:59;;;;;;;2.55;1.48;;;8.10;32.90;;;;;;6157481;23;20032;-72
2022/02/12 00:53:25;;;;;;;0.73;0.63;;;8.10;32.60;;;;;;6183495;23;20004;-73
2022/02/12 00:55:51;;;;;;;2.08;0.60;;;8.10;31.80;;;;;;6183786;23;20314;-73
2022/02/12 00:58:16;;;;;;;0.52;0.52;;;8.20;31.30;;;;;;6183508;23;20008;-73
2022/02/12 01:00:42;;;;;;;0.88;0.88;;;8.20;31.00;;;;;;6183800;23;19997;-73
2022/02/12 01:03:08;;;;;;;0.85;0.50;;;8.20;31.60;;;;;;6183664;23;20393;-73
2022/02/12 01:05:33;;;;;;;0.55;0.30;;;8.20;31.50;;;;;;6183824;23;20067;-73
2022/02/12 01:07:59;;;;;;;0.40;0.40;;;8.20;31.40;;;;;;6183482;23;20001;-72
2022/02/12 01:10:25;;;;;;;0.82;0.38;;;8.10;32.40;;;;;;6183852;23;20031;-73
2022/02/12 01:12:50;;;;;;;0.40;0.40;;;8.10;33.00;;;;;;6157202;23;20032;-73
2022/02/12 01:15:16;;;;;;;0.40;0.40;;;8.10;33.00;;;;;;6183807;23;20001;-72
2022/02/12 01:17:42;;;;;;;0.85;0.60;;;8.00;33.10;;;;;;6184273;23;20008;-73
2022/02/12 01:20:08;;;;;;;0.40;0.40;;;8.00;33.90;;;;;;6184520;23;20080;-73
2022/02/12 01:22:34;;;;;;;4.30;0.40;;;7.90;33.80;;;;;;6158239;23;20001;-73
2022/02/12 01:25:00;;;;;;;0.30;0.30;;;7.80;34.10;;;;;;6184138;23;20004;-72
2022/02/12 01:27:26;;;;;;;0.30;0.30;;;7.80;34.40;;;;;;6184414;23;20469;-73
2022/02/12 01:29:51;;;;;;;0.40;0.40;;;7.80;34.50;;;;;;6184503;23;20008;-72
2022/02/12 01:32:17;;;;;;;1.30;0.93;;;7.70;34.70;;;;;;6184723;23;20009;-73
2022/02/12 01:34:43;;;;;;;2.20;2.00;;;7.70;34.30;;;;;;6184540;23;20005;-72
2022/02/12 01:37:09;;;;;;;4.05;2.80;;;7.60;34.50;;;;;;6157964;23;20017;-72
2022/02/12 01:39:35;;;;;;;2.53;1.95;;;7.50;34.90;;;;;;6157806;23;20001;-72
2022/02/12 01:42:01;;;;;;;2.25;1.80;;;7.40;36.40;;;;;;6184188;23;19997;-72
2022/02/12 01:44:30;;;;;;;2.20;1.45;;;7.30;35.70;;;;;;6157782;23;20037;-73
2022/02/12 01:46:55;;;;;;;0.75;0.52;;;7.20;36.80;;;;;;6184316;23;20059;-73
2022/02/12 01:49:21;;;;;;;1.25;0.95;;;7.10;38.30;;;;;;6183988;23;20553;-73
2022/02/12 01:51:47;;;;;;;0.77;0.50;;;7.10;39.00;;;;;;6183834;23;20001;-72
2022/02/12 01:54:13;;;;;;;0.52;0.50;;;6.90;39.00;;;;;;6157469;23;20005;-72
2022/02/12 01:56:41;;;;;;;1.05;0.50;;;6.90;40.40;;;;;;6184303;23;20008;-73
2022/02/12 01:59:07;;;;;;;0.45;0.45;;;6.90;40.30;;;;;;6181022;23;20032;-73
2022/02/12 02:01:32;;;;;;;0.52;0.43;;;6.90;40.50;;;;;;6155603;23;20337;-72
2022/02/12 02:03:58;;;;;;;0.45;0.45;;;6.80;40.90;;;;;;6183016;23;20453;-73
2022/02/12 02:06:24;;;;;;;0.30;0.30;;;6.80;41.00;;;;;;6183571;23;19997;-73
2022/02/12 02:08:49;;;;;;;0.40;0.40;;;6.80;41.40;;;;;;6156670;23;20394;-73
2022/02/12 02:11:15;;;;;;;0.30;0.30;;;6.80;40.20;;;;;;6182528;23;20005;-72
2022/02/12 02:13:42;;;;;;;0.40;0.40;;;6.70;41.30;;;;;;6183373;23;20001;-73
2022/02/12 02:16:12;;;;;;;0.30;0.30;;;6.60;42.00;;;;;;6183338;23;20005;-73
2022/02/12 02:18:37;;;;;;;0.28;0.28;;;6.60;42.10;;;;;;6182818;23;20005;-73
2022/02/12 02:21:06;;;;;;;0.30;0.30;;;6.60;41.20;;;;;;6183528;23;20035;-73
2022/02/12 02:23:36;;;;;;;0.30;0.30;;;6.50;41.40;;;;;;6156859;23;20331;-73
2022/02/12 02:26:05;;;;;;;0.40;0.40;;;6.50;42.00;;;;;;6183403;23;20076;-73
2022/02/12 02:28:32;;;;;;;0.68;0.40;;;6.50;43.10;;;;;;6158054;23;20005;-73
2022/02/12 02:30:57;;;;;;;0.40;0.40;;;6.40;43.80;;;;;;6158718;23;20009;-73
2022/02/12 02:33:23;;;;;;;0.52;0.30;;;6.30;43.90;;;;;;6185087;23;20033;-72
2022/02/12 02:35:49;;;;;;;0.45;0.45;;;6.30;44.30;;;;;;6185034;23;20084;-73
2022/02/12 02:38:17;;;;;;;0.50;0.50;;;6.30;44.10;;;;;;6158422;23;20009;-73
2022/02/12 02:40:45;;;;;;;0.38;0.38;;;6.30;44.30;;;;;;6185193;23;20001;-73
2022/02/12 02:43:11;;;;;;;0.50;0.50;;;6.20;43.80;;;;;;6184694;23;20421;-73
2022/02/12 02:45:37;;;;;;;0.40;0.40;;;6.20;43.40;;;;;;6157725;23;20433;-73
2022/02/12 02:48:04;;;;;;;0.15;0.15;;;6.10;43.70;;;;;;6183536;23;20052;-72
2022/02/12 02:56:01;;;;;;;0.32;0.32;;;6.10;41.80;;;;;;6184955;23;20031;-72
2022/02/12 02:58:37;;;;;;;0.40;0.40;;;6.10;43.00;;;;;;6158237;23;20009;-72
2022/02/12 03:01:06;;;;;;;1.98;0.80;;;6.10;43.40;;;;;;6184924;23;20398;-72
2022/02/12 03:03:32;;;;;;;1.30;0.80;;;6.10;43.90;;;;;;6185046;23;20255;-73
2022/02/12 03:05:58;;;;;;;1.65;1.55;;;6.00;44.30;;;;;;6185040;23;20008;-72
2022/02/12 03:08:28;;;;;;;2.00;1.80;;;6.10;46.40;;;;;;6158486;23;20430;-73
2022/02/12 03:10:55;;;;;;;4.65;2.58;;;6.10;48.80;;;;;;6158321;23;20009;-73
2022/02/12 03:13:21;;;;;;;1.65;1.20;;;6.10;51.50;;;;;;6158500;23;20373;-72
2022/02/12 03:15:47;;;;;;;5.05;3.00;;;6.10;49.90;;;;;;6159587;23;20349;-73
2022/02/12 03:18:13;;;;;;;1.88;1.77;;;6.10;57.40;;;;;;6185567;23;20044;-82
2022/02/12 03:20:39;;;;;;;5.05;3.67;;;6.10;55.50;;;;;;6185937;23;19997;-82
2022/02/12 03:23:05;;;;;;;2.55;2.08;;;6.10;60.50;;;;;;6185988;23;20001;-82
2022/02/12 03:25:31;;;;;;;2.70;2.10;;;6.10;59.40;;;;;;6184884;23;19997;-81
2022/02/12 03:27:59;;;;;;;2.03;1.90;;;6.10;55.20;;;;;;6184394;23;20001;-82
2022/02/12 03:30:30;;;;;;;1.45;1.35;;;6.00;53.90;;;;;;6184913;23;20027;-82
2022/02/12 03:32:56;;;;;;;1.48;1.38;;;6.00;53.20;;;;;;6184902;23;20079;-82
2022/02/12 03:35:27;;;;;;;1.65;1.23;;;6.00;52.70;;;;;;6158192;23;20433;-82
2022/02/12 03:38:13;;;;;;;1.50;1.40;;;6.00;51.50;;;;;;6184316;23;20005;-81
2022/02/12 03:40:42;;;;;;;4.45;1.10;;;5.90;50.70;;;;;;6158273;23;20040;-82
2022/02/12 03:43:08;;;;;;;0.88;0.88;;;5.90;49.50;;;;;;6184161;23;20769;-82
2022/02/12 03:45:35;;;;;;;0.80;0.80;;;5.90;49.60;;;;;;6184275;23;20034;-82
2022/02/12 03:48:01;;;;;;;1.25;0.90;;;5.80;49.40;;;;;;6184215;23;20016;-80
2022/02/12 03:50:27;;;;;;;1.90;1.80;;;5.80;49.30;;;;;;6184559;23;20434;-81
2022/02/12 03:52:55;;;;;;;2.75;2.22;;;5.80;51.40;;;;;;6184491;23;20021;-82
2022/02/12 03:55:20;;;;;;;2.45;1.65;;;5.80;59.50;;;;;;6158151;23;20008;-82
2022/02/12 03:57:47;;;;;;;1.27;1.27;;;5.90;58.20;;;;;;6157971;23;20009;-82
2022/02/12 04:00:14;;;;;;;1.73;1.38;;;5.80;53.50;;;;;;6184541;23;20001;-82
2022/02/12 04:02:40;;;;;;;1.65;1.55;;;5.70;52.90;;;;;;6184032;23;20054;-81
2022/02/12 04:05:07;;;;;;;1.30;1.13;;;5.70;51.50;;;;;;6183982;23;19997;-82
2022/02/12 04:07:37;;;;;;;1.90;1.08;;;5.60;50.60;;;;;;6184250;23;20464;-82
2022/02/12 04:10:04;;;;;;;1.00;1.00;;;5.60;50.60;;;;;;6157924;23;20384;-82
2022/02/12 04:12:29;;;;;;;1.42;1.33;;;5.50;51.00;;;;;;6157628;23;20396;-82
2022/02/12 04:14:56;;;;;;;1.63;1.52;;;5.50;51.30;;;;;;6158014;23;20049;-82
2022/02/12 04:17:22;;;;;;;2.38;1.42;;;5.50;51.50;;;;;;6184010;23;20005;-82
2022/02/12 04:19:47;;;;;;;2.88;1.27;;;5.50;51.90;;;;;;6157592;23;20001;-82
2022/02/12 04:22:13;;;;;;;1.27;1.00;;;5.50;51.80;;;;;;6184297;23;20008;-81
2022/02/12 04:24:39;;;;;;;1.65;1.13;;;5.40;51.90;;;;;;6183935;23;20083;-82
2022/02/12 04:27:05;;;;;;;1.48;1.38;;;5.50;52.10;;;;;;6184424;23;20001;-82
2022/02/12 04:29:30;;;;;;;1.73;1.63;;;5.40;52.00;;;;;;6183641;23;20067;-81
2022/02/12 04:31:56;;;;;;;1.60;1.50;;;5.40;52.50;;;;;;6184428;23;20001;-82
2022/02/12 04:34:22;;;;;;;1.70;1.60;;;5.40;56.10;;;;;;6185488;23;19997;-82
2022/02/12 04:36:50;;;;;;;1.63;1.52;;;5.40;53.70;;;;;;6159025;23;20005;-82
2022/02/12 04:39:16;;;;;;;1.92;1.60;;;5.30;53.40;;;;;;6182684;23;20005;-73
2022/02/12 04:41:42;;;;;;;2.25;2.03;;;5.30;54.00;;;;;;6157451;23;20011;-72
2022/02/12 04:44:08;;;;;;;3.42;2.10;;;5.30;54.70;;;;;;6157473;23;20045;-72
2022/02/12 04:46:33;;;;;;;2.33;1.75;;;5.30;55.10;;;;;;6183773;23;20001;-72
2022/02/12 04:49:00;;;;;;;2.83;2.55;;;5.10;55.50;;;;;;6183524;23;20426;-72
2022/02/12 04:51:25;;;;;;;3.03;2.72;;;5.10;56.30;;;;;;6183919;23;20005;-72
2022/02/12 04:53:51;;;;;;;3.72;2.60;;;5.10;57.10;;;;;;6183906;23;20012;-73
2022/02/12 04:56:17;;;;;;;5.07;3.03;;;5.00;57.90;;;;;;6183690;23;20005;-72
2022/02/12 04:58:43;;;;;;;4.15;2.67;;;5.10;58.90;;;;;;6183734;23;20147;-72
2022/02/12 05:01:19;;;;;;;3.08;2.75;;;5.10;59.40;;;;;;6183742;23;20437;-72
2022/02/12 05:03:48;;;;;;;6.25;2.53;;;5.20;60.20;;;;;;6183946;23;20055;-73
2022/02/12 05:06:13;;;;;;;4.93;2.97;;;5.20;60.70;;;;;;6157796;23;20059;-72
2022/02/12 05:08:40;;;;;;;4.63;3.30;;;5.10;60.30;;;;;;6184140;23;20009;-72
2022/02/12 05:11:05;;;;;;;5.15;3.22;;;5.10;61.10;;;;;;6184455;23;20055;-73
2022/02/12 05:13:31;;;;;;;2.75;2.55;;;5.10;61.40;;;;;;6184431;23;20336;-72
2022/02/12 05:15:57;;;;;;;2.83;2.40;;;5.00;60.50;;;;;;6184549;23;20303;-73
2022/02/12 05:18:23;;;;;;;2.67;2.42;;;5.00;59.90;;;;;;6184834;23;20325;-72
2022/02/12 05:20:49;;;;;;;2.58;2.38;;;5.00;60.20;;;;;;6184267;23;20328;-72
2022/02/12 05:23:14;;;;;;;3.85;2.53;;;5.00;60.40;;;;;;6184111;23;20025;-72
2022/02/12 05:25:41;;;;;;;3.70;2.72;;;5.00;60.40;;;;;;6184190;23;20001;-72
2022/02/12 05:28:06;;;;;;;2.53;2.17;;;5.00;60.00;;;;;;6183645;23;20372;-72
2022/02/12 05:30:33;;;;;;;6.82;2.97;;;4.90;60.00;;;;;;6184023;23;20087;-73
2022/02/12 05:32:59;;;;;;;3.08;2.50;;;4.90;60.60;;;;;;6183759;23;20036;-72
2022/02/12 05:35:25;;;;;;;4.32;2.78;;;4.80;61.00;;;;;;6183951;23;20009;-73
2022/02/12 05:37:51;;;;;;;4.25;2.80;;;4.80;61.70;;;;;;6183411;23;20005;-72
2022/02/12 05:40:17;;;;;;;2.35;2.13;;;4.80;62.40;;;;;;6183814;23;19998;-73
2022/02/12 05:42:43;;;;;;;2.15;1.95;;;4.70;62.10;;;;;;6183837;23;20060;-73
2022/02/12 05:45:09;;;;;;;2.45;2.25;;;4.70;61.30;;;;;;6183443;23;20017;-72
2022/02/12 05:47:40;;;;;;;2.53;2.25;;;4.80;60.50;;;;;;6157228;23;20465;-72
2022/02/12 05:50:07;;;;;;;4.32;2.33;;;4.70;59.60;;;;;;6183751;23;20048;-72
2022/02/12 05:52:32;;;;;;;4.65;1.95;;;4.70;59.90;;;;;;6157391;23;20417;-72
2022/02/12 05:54:58;;;;;;;2.60;2.22;;;4.70;60.70;;;;;;6183552;23;20036;-72
2022/02/12 05:57:24;;;;;;;3.88;2.20;;;4.60;60.50;;;;;;6183490;23;20018;-73
2022/02/12 05:59:50;;;;;;;2.92;2.30;;;4.70;60.40;;;;;;6183536;23;20393;-73
2022/02/12 06:02:15;;;;;;;2.65;2.05;;;4.70;60.50;;;;;;6185297;23;20021;-73
2022/02/12 06:04:41;;;;;;;2.70;2.28;;;4.60;60.30;;;;;;6185584;23;20001;-73
2022/02/12 06:07:07;;;;;;;2.17;1.98;;;4.70;60.50;;;;;;6159097;23;20001;-73
2022/02/12 06:09:32;;;;;;;2.17;2.00;;;4.70;59.50;;;;;;6185259;23;20064;-72
2022/02/12 06:11:58;;;;;;;3.20;2.20;;;4.70;58.60;;;;;;6159197;23;20421;-73
2022/02/12 06:14:24;;;;;;;3.45;1.95;;;4.80;58.50;;;;;;6159074;23;20426;-73
2022/02/12 06:16:49;;;;;;;4.13;2.35;;;4.80;58.90;;;;;;6185460;23;19998;-73
2022/02/12 06:19:15;;;;;;;3.10;2.40;;;4.90;59.20;;;;;;6185302;23;20012;-73
2022/02/12 06:21:41;;;;;;;3.30;2.22;;;4.90;59.30;;;;;;6158890;23;20054;-73
2022/02/12 06:24:07;;;;;;;6.85;2.80;;;4.90;59.90;;;;;;6158981;23;20135;-73
2022/02/12 06:26:32;;;;;;;2.90;2.47;;;4.90;61.10;;;;;;6185435;23;20051;-73
2022/02/12 06:28:58;;;;;;;2.67;2.40;;;4.80;62.50;;;;;;6185202;23;20108;-73
2022/02/12 06:31:24;;;;;;;4.22;3.00;;;4.70;63.40;;;;;;6185272;23;20004;-73
2022/02/12 06:33:49;;;;;;;3.08;2.72;;;4.70;64.40;;;;;;6159320;23;20336;-73
2022/02/12 06:36:15;;;;;;;5.85;3.53;;;4.70;65.00;;;;;;6186071;23;20005;-73
2022/02/12 06:38:41;;;;;;;4.72;3.60;;;4.70;65.70;;;;;;6159186;23;20005;-72
2022/02/12 06:41:07;;;;;;;5.95;3.78;;;4.80;66.00;;;;;;6159743;23;20001;-73
2022/02/12 06:43:34;;;;;;;3.70;3.08;;;4.80;66.70;;;;;;6185628;23;20013;-73
2022/02/12 06:46:00;;;;;;;5.97;3.13;;;4.70;66.80;;;;;;6158665;23;20005;-73
2022/02/12 06:48:25;;;;;;;3.78;3.10;;;4.70;65.80;;;;;;6158779;23;20015;-73
2022/02/12 06:50:51;;;;;;;3.15;2.85;;;4.70;65.00;;;;;;6184972;23;20080;-73
2022/02/12 06:53:17;;;;;;;3.53;3.17;;;4.70;65.10;;;;;;6185066;23;20028;-73
2022/02/12 06:55:43;;;;;;;3.28;2.97;;;4.60;65.30;;;;;;6185317;23;20001;-73
2022/02/12 06:58:08;;;;;;;3.10;2.80;;;4.70;64.70;;;;;;6184876;23;20005;-73
2022/02/12 07:00:34;;;;;;;5.03;3.17;;;4.70;63.40;;;;;;6185074;23;20448;-73
2022/02/12 07:03:00;;;;;;;2.90;2.65;;;4.60;62.50;;;;;;6185170;23;20013;-73
2022/02/12 07:05:26;;;;;;;3.63;2.10;;;4.70;61.50;;;;;;6184764;23;20024;-73
2022/02/12 07:07:52;;;;;;;2.05;1.83;;;4.80;60.70;;;;;;6185094;23;20001;-73
2022/02/12 07:10:18;;;;;;;2.30;2.10;;;4.80;59.30;;;;;;6158327;23;20029;-73
2022/02/12 07:12:44;;;;;;;2.17;1.73;;;4.90;58.30;;;;;;6184580;23;20011;-73
2022/02/12 07:15:10;;;;;;;2.72;1.98;;;4.90;56.10;;;;;;6158535;23;20012;-73
2022/02/12 07:17:39;;;;;;;4.18;1.85;;;5.10;56.30;;;;;;6184949;23;20005;-72
2022/02/12 07:20:07;;;;;;;2.60;2.08;;;5.10;55.30;;;;;;6186161;23;20055;-73
2022/02/12 07:22:33;;;;;;;4.88;1.75;;;5.20;54.80;;;;;;6185962;23;20004;-73
2022/02/12 07:24:58;;;;;;;2.50;1.80;;;5.30;55.70;;;;;;6184834;23;20005;-73
2022/02/12 07:27:24;;;;;;;1.95;1.48;;;5.30;55.60;;;;;;6157749;23;20029;-72
2022/02/12 07:29:50;;;;;;;2.00;1.88;;;5.40;55.00;;;;;;6183931;23;20001;-72
2022/02/12 07:32:16;;;;;;;1.60;1.50;;;5.40;54.20;;;;;;6184080;23;20005;-73
2022/02/12 07:34:42;;;;;;;1.98;1.70;;;5.50;54.40;;;;;;6157529;23;20440;-73
2022/02/12 07:37:07;;;;;;;1.90;1.50;;;5.50;54.60;;;;;;6184005;23;20430;-73
2022/02/12 07:39:33;;;;;;;2.38;1.35;;;5.50;54.00;;;;;;6184592;23;20342;-73
2022/02/12 07:41:59;;;;;;;2.03;1.38;;;5.50;53.70;;;;;;6185151;23;20094;-73
2022/02/12 07:44:25;;;;;;;1.27;1.17;;;5.60;53.20;;;;;;6184709;23;20012;-73
2022/02/12 07:46:51;;;;;;;1.60;1.00;;;5.60;52.70;;;;;;6184863;23;20521;-73
2022/02/12 07:49:17;;;;;;;0.80;0.80;;;5.70;52.80;;;;;;6158313;23;20084;-72
2022/02/12 07:51:42;;;;;;;2.13;1.38;;;5.70;53.10;;;;;;6184857;23;20076;-73
2022/02/12 07:54:09;;;;;;;1.60;1.50;;;5.80;52.10;;;;;;6185403;23;20039;-73
2022/02/12 07:56:35;;;;;;;3.92;1.70;;;5.80;53.40;;;;;;6158597;23;20333;-73
2022/02/12 07:59:01;;;;;;;2.25;1.50;;;5.80;55.00;;;;;;6184771;23;20008;-73
2022/02/12 08:01:27;;;;;;;1.27;1.17;;;5.80;55.30;;;;;;6158661;23;20005;-73
2022/02/12 08:03:53;;;;;;;3.55;1.52;;;5.90;54.70;;;;;;6158673;23;20442;-72
2022/02/12 08:09:03;;;;;;;2.47;1.88;;;6.00;54.70;;;;;;6185279;23;20016;-73
2022/02/12 08:11:32;;;;;;;4.13;1.80;;;6.10;55.10;;;;;;6159139;23;20461;-73
2022/02/12 08:13:58;;;;;;;3.03;1.88;;;6.20;54.40;;;;;;6184247;23;20028;-72
2022/02/12 08:16:24;;;;;;;1.25;1.15;;;6.20;54.30;;;;;;6158182;23;20009;-73
2022/02/12 08:18:50;;;;;;;1.55;1.45;;;6.30;53.50;;;;;;6157976;23;20009;-73
2022/02/12 08:21:15;;;;;;;3.80;1.58;;;6.30;53.40;;;;;;6184558;23;20029;-73
2022/02/12 08:23:42;;;;;;;3.22;1.80;;;6.40;52.60;;;;;;6184650;23;20001;-73
2022/02/12 08:26:08;;;;;;;6.93;2.30;;;6.40;52.90;;;;;;6158405;23;19997;-72
2022/02/12 08:28:34;;;;;;;3.05;1.30;;;6.50;52.30;;;;;;6184771;23;20028;-73
2022/02/12 08:31:00;;;;;;;2.40;1.05;;;6.50;51.50;;;;;;6184384;23;20425;-73
2022/02/12 08:33:26;;;;;;;2.90;1.58;;;6.60;50.90;;;;;;6184101;23;20001;-73
2022/02/12 08:35:52;;;;;;;6.78;1.50;;;6.60;49.40;;;;;;6184931;23;20031;-82
2022/02/12 08:38:17;;;;;;;1.90;1.08;;;6.70;50.60;;;;;;6158974;23;20005;-82
2022/02/12 08:40:43;;;;;;;3.17;1.40;;;6.70;49.40;;;;;;6185703;23;19998;-81
2022/02/12 08:43:11;;;;;;;1.80;0.88;;;6.80;48.60;;;;;;6185623;23;20016;-81
2022/02/12 08:45:37;;;;;;;2.92;1.00;;;6.80;48.50;;;;;;6185803;23;20005;-81
2022/02/12 08:48:06;;;;;;;0.70;0.70;;;6.90;48.30;;;;;;6185476;23;20346;-81
2022/02/12 08:50:31;;;;;;;3.17;1.20;;;7.00;47.90;;;;;;6185477;23;20068;-82
2022/02/12 08:52:57;;;;;;;1.00;1.00;;;7.00;48.00;;;;;;6183511;23;20079;-73
2022/02/12 08:55:24;;;;;;;1.00;0.93;;;7.00;48.10;;;;;;6182504;23;20001;-73
2022/02/12 08:57:50;;;;;;;1.60;1.17;;;7.10;47.80;;;;;;6156418;23;20009;-73
2022/02/12 09:00:16;;;;;;;4.28;1.00;;;7.10;47.60;;;;;;6156851;23;20056;-73
2022/02/12 09:02:42;;;;;;;1.27;1.00;;;7.10;47.00;;;;;;6183426;23;20024;-73
2022/02/12 09:05:08;;;;;;;0.90;0.90;;;7.20;46.90;;;;;;6183814;23;20005;-73
2022/02/12 09:07:34;;;;;;;1.35;0.73;;;7.20;47.10;;;;;;6157095;23;20067;-73
2022/02/12 09:10:01;;;;;;;1.27;1.17;;;7.20;46.40;;;;;;6155676;23;20092;-73
2022/02/12 09:12:28;;;;;;;1.50;1.40;;;7.30;45.80;;;;;;6183933;23;20370;-73
2022/02/12 09:14:53;;;;;;;1.60;1.50;;;7.30;45.30;;;;;;6184912;23;20001;-73
2022/02/12 09:17:19;;;;;;;1.45;1.35;;;7.30;45.00;;;;;;6184888;23;20056;-73
2022/02/12 09:19:45;;;;;;;1.80;1.13;;;7.40;45.30;;;;;;6184978;23;20007;-73
2022/02/12 09:22:11;;;;;;;1.20;1.10;;;7.40;45.30;;;;;;6158403;23;20009;-73
2022/02/12 09:24:37;;;;;;;2.08;1.27;;;7.50;46.00;;;;;;6184841;23;19997;-73
2022/02/12 09:27:03;;;;;;;2.08;1.13;;;7.60;46.80;;;;;;6158634;23;20005;-73
2022/02/12 09:29:29;;;;;;;4.35;1.25;;;7.70;46.80;;;;;;6184592;23;20005;-73
2022/02/12 09:31:55;;;;;;;1.40;1.27;;;7.80;47.40;;;;;;6184518;23;20553;-73
2022/02/12 09:34:20;;;;;;;1.65;1.30;;;7.80;46.70;;;;;;6184135;23;20509;-73
2022/02/12 09:36:46;;;;;;;3.40;1.85;;;7.90;48.30;;;;;;6183985;23;20072;-73
2022/02/12 09:39:12;;;;;;;5.53;5.07;;;8.00;49.00;;;;;;6184286;23;20032;-73
2022/02/12 09:41:38;;;;;;;6.72;4.38;;;8.20;71.80;;;;;;6157695;23;20001;-73
2022/02/12 09:44:04;;;;;;;3.85;3.55;;;8.40;67.40;;;;;;6184273;23;20016;-73
2022/02/12 09:46:49;;;;;;;5.60;2.92;;;8.50;62.90;;;;;;6184766;23;19997;-73
2022/02/12 09:49:15;;;;;;;6.47;2.05;;;8.50;58.20;;;;;;6158040;23;20005;-73
2022/02/12 09:51:41;;;;;;;4.22;2.38;;;8.60;53.80;;;;;;6184805;23;20027;-79
2022/02/12 09:54:08;;;;;;;2.42;2.28;;;8.60;58.70;;;;;;6185207;23;20005;-79
2022/02/12 09:56:35;;;;;;;2.35;2.22;;;8.70;57.70;;;;;;6185183;23;20012;-79
2022/02/12 09:59:01;;;;;;;5.97;2.13;;;8.70;56.60;;;;;;6184632;23;20005;-79
2022/02/12 10:01:27;;;;;;;6.43;2.65;;;8.70;54.60;;;;;;6184873;23;20025;-79
2022/02/12 10:03:53;;;;;;;6.18;1.95;;;8.80;55.60;;;;;;6185032;23;19997;-79
2022/02/12 10:06:39;;;;;;;7.57;2.30;;;8.80;55.10;;;;;;6158483;23;20016;-79
2022/02/12 10:09:06;;;;;;;4.00;1.95;;;8.80;56.20;;;;;;6185048;23;20005;-80
2022/02/12 10:11:40;;;;;;;12.27;2.30;;;8.90;56.50;;;;;;6184951;23;20075;-80
2022/02/12 10:14:23;;;;;;;2.13;1.92;;;8.90;54.00;;;;;;6184545;23;20028;-79
2022/02/12 10:17:00;;;;;;;2.47;1.48;;;8.90;52.10;;;;;;6157851;23;20051;-80
2022/02/12 10:19:34;;;;;;;2.33;1.55;;;8.90;51.00;;;;;;6184391;23;20076;-79
2022/02/12 10:22:13;;;;;;;2.22;1.20;;;8.90;53.70;;;;;;6184699;23;20024;-80
2022/02/12 10:24:45;;;;;;;5.25;1.77;;;9.00;51.00;;;;;;6184847;23;20081;-80
2022/02/12 10:27:11;;;;;;;2.60;1.23;;;9.00;50.70;;;;;;6184607;23;20060;-80
2022/02/12 10:29:37;;;;;;;1.45;1.35;;;9.00;51.40;;;;;;6158519;23;20009;-79
2022/02/12 10:32:03;;;;;;;2.85;1.77;;;9.00;49.20;;;;;;6185305;23;20059;-80
2022/02/12 10:34:40;;;;;;;2.67;1.45;;;9.10;51.00;;;;;;6185231;23;20059;-80
2022/02/12 10:37:06;;;;;;;4.60;1.60;;;9.30;50.60;;;;;;6185304;23;20306;-80
2022/02/12 10:39:37;;;;;;;6.90;1.48;;;9.20;51.00;;;;;;6184915;23;20005;-79
2022/02/12 10:42:07;;;;;;;1.52;1.42;;;9.30;50.50;;;;;;6185064;23;20429;-79
2022/02/12 10:44:33;;;;;;;3.42;1.40;;;9.30;50.70;;;;;;6184828;23;20372;-80
2022/02/12 10:46:59;;;;;;;1.42;1.33;;;9.30;49.10;;;;;;6185106;23;20052;-80
2022/02/12 10:49:25;;;;;;;2.25;1.40;;;9.30;47.60;;;;;;6160391;23;20009;-83
2022/02/12 10:51:54;;;;;;;3.53;1.70;;;9.30;46.10;;;;;;6186859;23;20008;-82
2022/02/12 10:54:20;;;;;;;1.30;1.20;;;9.30;46.30;;;;;;6186572;23;20380;-82
2022/02/12 10:56:54;;;;;;;1.73;1.45;;;9.40;45.60;;;;;;6186797;23;20076;-82
2022/02/12 10:59:22;;;;;;;1.42;1.33;;;9.30;44.30;;;;;;6186503;23;20011;-82
2022/02/12 11:01:50;;;;;;;1.27;1.20;;;9.40;45.00;;;;;;6186687;23;20008;-82
2022/02/12 11:04:17;;;;;;;2.40;1.25;;;9.50;44.60;;;;;;6185148;23;20008;-82
2022/02/12 11:06:48;;;;;;;1.48;1.30;;;9.60;44.50;;;;;;6158372;23;20329;-82
2022/02/12 11:09:16;;;;;;;2.97;1.00;;;9.50;43.70;;;;;;6184720;23;20005;-82
2022/02/12 11:11:42;;;;;;;2.00;1.35;;;9.50;44.20;;;;;;6185022;23;20001;-82
2022/02/12 11:14:08;;;;;;;4.03;1.92;;;9.50;43.80;;;;;;6158551;23;20341;-82
2022/02/12 11:16:35;;;;;;;1.50;1.30;;;9.60;45.00;;;;;;6184819;23;20001;-82
2022/02/12 11:19:02;;;;;;;1.42;1.33;;;9.60;43.80;;;;;;6184822;23;20079;-82
2022/02/12 11:21:29;;;;;;;2.55;1.23;;;9.50;44.20;;;;;;6185006;23;20330;-82
2022/02/12 11:24:00;;;;;;;1.60;1.40;;;9.60;45.30;;;;;;6184912;23;20377;-82
2022/02/12 11:26:26;;;;;;;1.33;1.10;;;9.80;47.20;;;;;;6157844;23;20001;-81
2022/02/12 11:28:52;;;;;;;1.70;1.60;;;9.80;45.80;;;;;;6182824;23;20071;-82
2022/02/12 11:31:24;;;;;;;2.70;1.40;;;9.80;44.30;;;;;;6183421;23;20106;-82
2022/02/12 11:34:09;;;;;;;1.15;1.05;;;9.80;43.90;;;;;;6184452;23;20005;-82
2022/02/12 11:36:37;;;;;;;2.13;1.75;;;9.80;43.70;;;;;;6184864;23;20012;-81
2022/02/12 11:39:14;;;;;;;1.42;1.33;;;10.00;44.80;;;;;;6184492;23;20001;-82
2022/02/12 11:41:42;;;;;;;3.10;2.03;;;10.00;44.90;;;;;;6184473;23;19997;-81
2022/02/12 11:44:08;;;;;;;1.20;1.10;;;10.20;45.20;;;;;;6184616;23;20016;-82
2022/02/12 11:46:49;;;;;;;4.65;1.27;;;10.20;44.10;;;;;;6184791;23;20004;-82
2022/02/12 11:49:29;;;;;;;1.80;1.27;;;10.10;43.00;;;;;;6157786;23;20318;-81
2022/02/12 11:52:19;;;;;;;2.45;1.48;;;10.10;44.80;;;;;;6158336;23;20013;-82
2022/02/12 11:55:05;;;;;;;1.52;1.42;;;10.10;43.40;;;;;;6103475;23;20005;-82
2022/02/12 11:57:31;;;;;;;6.10;1.67;;;10.10;43.00;;;;;;6183569;23;20056;-82
2022/02/12 12:00:00;;;;;;;2.22;1.42;;;10.10;43.50;;;;;;6158017;23;20373;-81
2022/02/12 12:02:48;;;;;;;2.55;1.50;;;10.10;44.20;;;;;;6184560;23;20084;-82
2022/02/12 12:05:20;;;;;;;1.65;1.50;;;10.20;44.90;;;;;;6158116;23;20333;-82
2022/02/12 12:08:10;;;;;;;3.30;1.55;;;10.20;43.20;;;;;;6157704;23;20385;-82
2022/02/12 12:10:38;;;;;;;4.18;1.80;;;10.30;44.00;;;;;;6184309;23;20064;-81
2022/02/12 12:13:16;;;;;;;4.03;1.50;;;10.40;42.80;;;;;;6184342;23;20450;-82
2022/02/12 12:16:17;;;;;;;1.42;1.13;;;10.40;42.00;;;;;;6184149;23;20054;-82
2022/02/12 12:18:47;;;;;;;4.63;1.60;;;10.50;42.40;;;;;;6163140;23;20441;-81
2022/02/12 12:21:14;;;;;;;4.00;1.40;;;10.50;42.00;;;;;;6184171;23;20004;-82
2022/02/12 12:23:42;;;;;;;6.38;1.38;;;10.50;42.00;;;;;;6184136;23;19997;-82
2022/02/12 12:26:08;;;;;;;2.65;1.83;;;10.50;41.00;;;;;;6184202;23;20001;-81
2022/02/12 12:28:40;;;;;;;2.25;1.90;;;10.60;41.80;;;;;;6157674;23;20100;-82
2022/02/12 12:31:14;;;;;;;2.35;1.30;;;10.70;42.30;;;;;;6184170;23;20008;-82
2022/02/12 12:33:42;;;;;;;1.73;1.23;;;10.80;39.10;;;;;;6184257;23;20001;-80
2022/02/12 12:36:13;;;;;;;1.35;1.08;;;10.80;39.20;;;;;;6157282;23;20087;-81
2022/02/12 12:38:49;;;;;;;1.38;1.27;;;10.90;38.10;;;;;;6183972;23;20012;-82
2022/02/12 12:41:29;;;;;;;1.33;1.05;;;10.90;38.70;;;;;;6157683;23;20001;-81
2022/02/12 12:44:24;;;;;;;1.08;0.98;;;11.00;38.90;;;;;;6143981;23;20350;-82
2022/02/12 12:46:52;;;;;;;1.42;1.17;;;11.10;37.90;;;;;;6123005;23;20016;-81
2022/02/12 12:49:46;;;;;;;1.38;1.27;;;11.00;38.80;;;;;;6154282;23;20012;-82
2022/02/12 12:52:15;;;;;;;2.03;0.90;;;11.00;37.70;;;;;;6148918;23;20061;-82
2022/02/12 12:54:43;;;;;;;3.08;1.17;;;11.00;38.50;;;;;;6153973;23;20002;-82
2022/02/12 12:57:13;;;;;;;2.60;1.38;;;11.00;38.60;;;;;;6153979;23;20006;-81
2022/02/12 12:59:58;;;;;;;2.15;1.33;;;11.00;38.00;;;;;;6154043;23;20385;-81
2022/02/12 13:02:26;;;;;;;1.17;1.08;;;11.10;36.60;;;;;;6154183;23;20052;-81
2022/02/12 13:04:55;;;;;;;4.15;1.23;;;11.00;36.20;;;;;;6154217;23;20378;-82
2022/02/12 13:07:24;;;;;;;1.35;1.25;;;11.00;38.00;;;;;;6153995;23;20426;-82